Moses Lake, WA (98837)

4:08 PM PDT on May 28, 2015 (GMT -0700)
Civic Center | | Change Station
CLOSE
Current Station
Personal Weather Station
Location: Moses Lake, WA
Elevation: 1050 ft
Nearby Weather Stations

Elev 1050 ft 47.13 °N, 119.27 °W | Updated 2 seconds ago

Clear
Clear
85.0 °F
Feels Like 82 °F
N
1.0
Wind Variable Wind from West
Gusts 8.0 mph

Today
High -- | Low -- °F
--% Chance of Precip.
Yesterday
High -- | Low -- °F
Precip. -- in
5:08 AM 8:41 PM
Waxing Gibbous, 79% visible
Pressure 29.97 in
Visibility 10.0 miles
Clouds Clear
Heat Index 82 °F
Dew Point 46 °F
Humidity 26%
Rainfall 0.04 in
Snow Depth Not available.
UV 7 out of 12
Pollen 8.60 out of 12
Air Quality Not available.
Flu Activity Sporadic
METAR KMWH 282252Z 17006KT 10SM CLR 29/07 A2998 RMK AO2 SLP148 T02940067

More Conditions Fewer Conditions

Pressure 29.97 in
Visibility 10.0 miles
Clouds Clear
Heat Index 82 °F
Dew Point 46 °F
Humidity 26%
Rainfall 0.04 in
Snow Depth Not available.
UV 7 out of 12
Pollen 8.60 out of 12
Air Quality Not available.
Flu Activity Sporadic
METAR KMWH 282252Z 17006KT 10SM CLR 29/07 A2998 RMK AO2 SLP148 T02940067

More Conditions Fewer Conditions

10-Day Weather Forecast

Almanac

Astronomy

May. 28, 2015 Rise Set
Actual Time
Civil Twilight
Nautical Twilight
Astronomical Twilight
Moon
Length of Visible Light
Length of Day
Tomorrow will be .
, % of the Moon is Illuminated

Today's Extremes

State Highs State Lows

Community

WunderPhotos

Upload Photos

1,825,089 photos uploaded!

WunderBlogs® & News

Nearby

Air Quality

  Air Quality AQ Index Pollutant
Not available.

Snow Depth

Station Depth Elevation

Earthquake Activity

City Distance Mag. Time & Date
Minimum magnitude displayed is 2.5.

Coastal Water Temperatures

Place Temperature

Stations

Nearby Weather Stations

Station Location Temp. Windchill Dew Point Humidity Wind Precip. Elev Updated Type